createdAt,value
2023-03-02T00:01:10.795Z,22.90
2023-03-02T00:03:40.587Z,22.98
2023-03-02T00:06:08.932Z,17.20
2023-03-02T00:08:37.053Z,18.88
2023-03-02T00:11:03.640Z,21.48
2023-03-02T00:13:32.119Z,27.48
2023-03-02T00:15:59.001Z,28.63
2023-03-02T00:18:25.734Z,19.35
2023-03-02T00:20:52.267Z,13.30
2023-03-02T00:23:19.485Z,16.83
2023-03-02T00:25:45.865Z,16.90
2023-03-02T00:28:12.316Z,13.57
2023-03-02T00:30:39.216Z,22.48
2023-03-02T00:33:05.634Z,19.85
2023-03-02T00:35:37.857Z,12.95
2023-03-02T00:38:04.435Z,19.35
2023-03-02T00:40:30.904Z,22.75
2023-03-02T00:42:58.029Z,22.48
2023-03-02T00:45:24.456Z,18.70
2023-03-02T00:47:50.919Z,28.45
2023-03-02T00:50:17.973Z,20.45
2023-03-02T00:52:44.407Z,16.80
2023-03-02T00:55:10.849Z,9.30
2023-03-02T00:57:37.624Z,22.63
2023-03-02T01:00:04.979Z,20.20
2023-03-02T01:02:32.240Z,14.52
2023-03-02T01:04:59.129Z,17.88
2023-03-02T01:07:26.396Z,17.85
2023-03-02T01:09:53.081Z,26.85
2023-03-02T01:12:20.105Z,18.25
2023-03-02T01:14:48.450Z,21.27
2023-03-02T01:17:15.658Z,14.60
2023-03-02T01:19:43.020Z,16.92
2023-03-02T01:22:09.839Z,20.02
2023-03-02T01:24:36.324Z,22.55
2023-03-02T01:27:03.127Z,18.65
2023-03-02T01:29:29.634Z,18.40
2023-03-02T01:31:56.184Z,10.88
2023-03-02T01:34:23.095Z,11.88
2023-03-02T01:36:49.532Z,12.13
2023-03-02T01:39:16.268Z,16.23
2023-03-02T01:41:44.795Z,20.83
2023-03-02T01:44:42.014Z,26.13
2023-03-02T01:47:38.843Z,15.15
2023-03-02T01:50:18.802Z,11.52
2023-03-02T01:52:45.762Z,15.45
2023-03-02T01:55:16.673Z,23.95
2023-03-02T01:57:47.246Z,14.45
2023-03-02T02:00:22.617Z,17.70
2023-03-02T02:02:50.760Z,26.23
2023-03-02T02:05:24.114Z,14.52
2023-03-02T02:07:51.259Z,14.80
2023-03-02T02:10:18.113Z,9.68
2023-03-02T02:12:44.612Z,18.08
2023-03-02T02:15:11.771Z,23.73
2023-03-02T02:17:38.268Z,22.33
2023-03-02T02:20:30.073Z,17.55
2023-03-02T02:23:15.524Z,17.50
2023-03-02T02:28:17.030Z,18.55
2023-03-02T02:30:45.082Z,21.17
2023-03-02T02:33:16.746Z,19.25
2023-03-02T02:35:46.916Z,11.55
2023-03-02T02:38:17.783Z,17.52
2023-03-02T02:40:58.904Z,18.77
2023-03-02T02:43:29.898Z,26.65
2023-03-02T02:45:58.166Z,28.15
2023-03-02T02:48:27.117Z,16.65
2023-03-02T02:51:00.443Z,18.50
2023-03-02T02:53:39.035Z,16.42
2023-03-02T02:56:07.962Z,27.00
2023-03-02T02:58:40.524Z,19.98
2023-03-02T03:01:08.172Z,20.90
2023-03-02T03:03:38.043Z,17.67
2023-03-02T03:06:08.897Z,19.77
2023-03-02T03:08:41.273Z,16.48
2023-03-02T03:11:09.399Z,24.23
2023-03-02T03:13:36.890Z,20.95
2023-03-02T03:16:03.723Z,28.05
2023-03-02T03:18:31.766Z,22.27
2023-03-02T03:20:58.852Z,21.95
2023-03-02T03:23:25.338Z,22.92
2023-03-02T03:25:51.734Z,18.48
2023-03-02T03:28:18.589Z,22.42
2023-03-02T03:30:45.092Z,21.05
2023-03-02T03:33:11.704Z,21.70
2023-03-02T03:35:39.292Z,26.10
2023-03-02T03:38:08.079Z,23.23
2023-03-02T03:40:35.053Z,20.98
2023-03-02T03:43:02.696Z,18.83
2023-03-02T03:45:30.476Z,25.63
2023-03-02T03:47:58.217Z,18.92
2023-03-02T03:50:24.742Z,22.58
2023-03-02T03:52:51.541Z,17.00
2023-03-02T03:55:19.552Z,22.88
2023-03-02T03:57:46.074Z,19.88
2023-03-02T04:00:17.849Z,6.95
2023-03-02T04:02:44.698Z,18.75
2023-03-02T04:05:11.718Z,16.33
2023-03-02T04:07:39.778Z,21.30
2023-03-02T04:10:08.801Z,17.67
2023-03-02T04:12:37.997Z,21.55
2023-03-02T04:15:07.034Z,11.07
2023-03-02T04:17:33.846Z,22.73
2023-03-02T04:20:00.277Z,14.82
2023-03-02T04:22:27.218Z,19.50
2023-03-02T04:24:54.160Z,16.88
2023-03-02T04:27:20.640Z,17.35
2023-03-02T04:29:47.298Z,15.88
2023-03-02T04:32:16.644Z,16.95
2023-03-02T04:34:43.152Z,6.40
2023-03-02T04:37:09.614Z,13.60
2023-03-02T04:39:36.429Z,18.50
2023-03-02T04:42:02.963Z,22.35
2023-03-02T04:44:29.389Z,17.15
2023-03-02T04:46:56.263Z,24.05
2023-03-02T04:49:23.118Z,19.27
2023-03-02T04:51:50.717Z,17.90
2023-03-02T04:54:21.577Z,9.15
2023-03-02T04:56:48.942Z,18.08
2023-03-02T04:59:16.872Z,19.38
2023-03-02T05:01:44.459Z,16.25
2023-03-02T05:04:12.047Z,15.02
2023-03-02T05:06:38.541Z,17.42
2023-03-02T05:09:05.965Z,16.05
2023-03-02T05:11:33.610Z,25.17
2023-03-02T05:14:03.413Z,17.65
2023-03-02T05:16:34.021Z,15.85
2023-03-02T05:19:01.939Z,10.75
2023-03-02T05:21:28.522Z,26.02
2023-03-02T05:23:55.475Z,19.58
2023-03-02T05:26:22.154Z,16.73
2023-03-02T05:28:49.147Z,21.42
2023-03-02T05:31:25.951Z,17.70
2023-03-02T05:33:52.681Z,18.23
2023-03-02T05:36:21.221Z,17.90
2023-03-02T05:38:49.643Z,20.48
2023-03-02T05:41:16.094Z,18.92
2023-03-02T05:43:42.649Z,19.30
2023-03-02T05:46:09.392Z,17.73
2023-03-02T05:48:35.809Z,21.52
2023-03-02T05:51:02.443Z,17.77
2023-03-02T05:53:29.234Z,25.67
2023-03-02T05:55:56.180Z,17.35
2023-03-02T05:58:22.614Z,22.33
2023-03-02T06:00:49.953Z,18.85
2023-03-02T06:03:17.054Z,14.88
2023-03-02T06:05:44.239Z,14.88
2023-03-02T06:08:10.866Z,20.02
2023-03-02T06:10:38.142Z,17.17
2023-03-02T06:13:04.598Z,8.80
2023-03-02T06:15:31.136Z,23.10
2023-03-02T06:17:57.835Z,21.42
2023-03-02T06:20:24.859Z,21.13
2023-03-02T06:22:51.516Z,19.65
2023-03-02T06:25:21.062Z,16.27
2023-03-02T06:27:51.852Z,14.77
2023-03-02T06:30:21.776Z,24.08
2023-03-02T06:32:48.373Z,23.75
2023-03-02T06:35:15.576Z,26.23
2023-03-02T06:37:44.225Z,11.70
2023-03-02T06:40:13.562Z,9.75
2023-03-02T06:42:41.976Z,13.15
2023-03-02T06:45:10.336Z,17.73
2023-03-02T06:47:36.939Z,19.67
2023-03-02T06:50:05.058Z,23.95
2023-03-02T06:52:31.577Z,17.48
2023-03-02T06:54:58.007Z,20.55
2023-03-02T06:57:24.580Z,18.23
2023-03-02T06:59:51.137Z,20.60
2023-03-02T07:02:17.579Z,19.92
2023-03-02T07:04:44.368Z,23.65
2023-03-02T07:07:10.768Z,19.55
2023-03-02T07:09:37.180Z,18.00
2023-03-02T07:12:04.254Z,21.35
2023-03-02T07:14:30.646Z,21.67
2023-03-02T07:16:57.580Z,17.33
2023-03-02T07:19:25.605Z,18.00
2023-03-02T07:21:52.388Z,20.92
2023-03-02T07:24:19.158Z,11.90
2023-03-02T07:26:45.880Z,14.68
2023-03-02T07:29:12.699Z,22.77
2023-03-02T07:31:39.324Z,14.63
2023-03-02T07:34:06.130Z,15.18
2023-03-02T07:36:32.586Z,26.15
2023-03-02T07:38:59.003Z,20.25
2023-03-02T07:41:25.922Z,16.05
2023-03-02T07:43:52.311Z,14.90
2023-03-02T07:46:18.792Z,15.95
2023-03-02T07:48:45.650Z,17.13
2023-03-02T07:51:12.098Z,20.55
2023-03-02T07:53:38.658Z,20.65
2023-03-02T07:56:11.882Z,18.63
2023-03-02T07:58:38.789Z,18.30
2023-03-02T08:01:05.653Z,21.27
2023-03-02T08:03:32.355Z,19.33
2023-03-02T08:05:59.152Z,14.23
2023-03-02T08:08:25.585Z,23.40
2023-03-02T08:10:52.054Z,20.25
2023-03-02T08:13:18.899Z,25.70
2023-03-02T08:15:45.331Z,20.40
2023-03-02T08:18:12.149Z,16.80
2023-03-02T08:20:39.033Z,15.63
2023-03-02T08:23:05.506Z,20.73
2023-03-02T08:25:31.944Z,15.98
2023-03-02T08:27:58.804Z,20.45
2023-03-02T08:30:25.418Z,16.60
2023-03-02T08:32:51.952Z,20.38
2023-03-02T08:35:18.919Z,19.38
2023-03-02T08:37:45.422Z,13.00
2023-03-02T08:40:12.179Z,19.05
2023-03-02T08:42:38.986Z,19.90
2023-03-02T08:45:05.962Z,20.75
2023-03-02T08:47:32.591Z,19.20
2023-03-02T08:49:59.334Z,18.60
2023-03-02T08:52:25.772Z,22.05
2023-03-02T08:54:52.227Z,19.58
2023-03-02T08:57:20.402Z,17.98
2023-03-02T08:59:47.692Z,20.17
2023-03-02T09:02:14.186Z,30.98
2023-03-02T09:04:41.372Z,19.75
2023-03-02T09:07:07.906Z,18.38
2023-03-02T09:09:34.318Z,24.77
2023-03-02T09:12:01.218Z,16.38
2023-03-02T09:14:27.865Z,13.57
2023-03-02T09:16:54.517Z,18.50
2023-03-02T09:19:21.477Z,24.60
2023-03-02T09:21:48.058Z,17.30
2023-03-02T09:24:14.402Z,24.55
2023-03-02T09:26:41.080Z,18.38
2023-03-02T09:29:08.236Z,15.20
2023-03-02T09:31:36.165Z,16.20
2023-03-02T09:34:04.246Z,21.33
2023-03-02T09:36:32.944Z,16.92
2023-03-02T09:38:59.535Z,17.15
2023-03-02T09:41:41.981Z,11.25
2023-03-02T09:44:33.121Z,17.50
2023-03-02T09:47:04.913Z,16.77
2023-03-02T09:49:37.433Z,9.93
2023-03-02T09:52:30.312Z,20.05
2023-03-02T09:55:02.492Z,17.50
2023-03-02T09:57:34.361Z,10.63
2023-03-02T10:00:18.098Z,17.45
2023-03-02T10:02:52.938Z,11.32
2023-03-02T10:05:49.381Z,16.73
2023-03-02T10:08:17.969Z,20.95
2023-03-02T10:10:54.876Z,15.85
2023-03-02T10:13:42.202Z,18.60
2023-03-02T10:16:38.930Z,17.90
2023-03-02T10:19:25.082Z,59.00
2023-03-02T10:22:10.933Z,15.30
2023-03-02T10:24:57.643Z,21.65
2023-03-02T10:27:40.209Z,18.45
2023-03-02T10:30:27.772Z,18.92
2023-03-02T10:32:59.933Z,20.05
2023-03-02T10:35:28.742Z,14.98
2023-03-02T10:38:02.916Z,13.38
2023-03-02T10:40:32.425Z,24.48
2023-03-02T10:43:01.172Z,19.35
2023-03-02T10:45:30.890Z,15.65
2023-03-02T10:48:07.090Z,14.90
2023-03-02T10:50:34.302Z,11.18
2023-03-02T10:53:03.613Z,14.23
2023-03-02T10:55:33.708Z,12.77
2023-03-02T10:58:00.937Z,15.88
2023-03-02T11:00:29.394Z,15.27
2023-03-02T11:02:59.247Z,15.63
2023-03-02T11:05:31.599Z,12.93
2023-03-02T11:08:05.488Z,10.10
2023-03-02T11:10:36.606Z,17.30
2023-03-02T11:13:17.045Z,11.45
2023-03-02T11:15:49.789Z,22.23
2023-03-02T11:18:31.948Z,40.30
2023-03-02T11:21:08.801Z,22.38
2023-03-02T11:23:59.476Z,14.68
2023-03-02T11:26:35.823Z,15.25
2023-03-02T11:29:30.776Z,17.27
2023-03-02T11:32:04.362Z,16.90
2023-03-02T11:34:46.975Z,14.85
2023-03-02T11:37:23.469Z,14.52
2023-03-02T11:40:04.515Z,18.35
2023-03-02T11:42:35.527Z,17.98
2023-03-02T11:45:16.359Z,11.35
2023-03-02T11:47:57.578Z,13.52
2023-03-02T11:50:30.706Z,17.92
2023-03-02T11:53:05.257Z,13.80
2023-03-02T11:55:45.442Z,17.13
2023-03-02T11:58:25.311Z,17.10
2023-03-02T12:00:53.540Z,14.25
2023-03-02T12:03:37.298Z,21.30
2023-03-02T12:06:22.421Z,15.43
2023-03-02T12:08:52.596Z,19.65
2023-03-02T12:11:18.998Z,18.13
2023-03-02T12:13:54.753Z,13.90
2023-03-02T12:16:41.732Z,12.10
2023-03-02T12:19:17.671Z,16.85
2023-03-02T12:21:57.271Z,18.85
2023-03-02T12:24:33.535Z,14.23
2023-03-02T12:27:14.140Z,15.40
2023-03-02T12:29:46.580Z,18.25
2023-03-02T12:32:19.342Z,4.72
2023-03-02T12:34:55.642Z,13.23
2023-03-02T12:37:45.473Z,19.73
2023-03-02T12:40:27.397Z,20.45
2023-03-02T12:43:35.425Z,7.93
2023-03-02T12:46:11.343Z,9.10
2023-03-02T12:48:48.707Z,16.13
2023-03-02T12:51:23.073Z,20.45
2023-03-02T12:53:50.858Z,13.35
2023-03-02T12:56:25.508Z,19.67
2023-03-02T12:58:53.886Z,15.75
2023-03-02T13:01:24.986Z,11.07
2023-03-02T13:03:52.795Z,14.13
2023-03-02T13:06:20.686Z,10.43
2023-03-02T13:08:51.666Z,22.98
2023-03-02T13:11:26.694Z,11.25
2023-03-02T13:13:53.691Z,11.35
2023-03-02T13:16:32.359Z,16.33
2023-03-02T13:19:18.649Z,20.77
2023-03-02T13:21:45.087Z,13.82
2023-03-02T13:24:26.772Z,13.05
2023-03-02T13:26:59.486Z,16.33
2023-03-02T13:29:27.333Z,13.50
2023-03-02T13:31:55.182Z,12.60
2023-03-02T13:34:31.783Z,19.30
2023-03-02T13:36:58.861Z,9.63
2023-03-02T13:39:31.489Z,15.75
2023-03-02T13:42:00.458Z,16.85
2023-03-02T13:44:30.703Z,13.23
2023-03-02T13:46:57.718Z,14.25
2023-03-02T13:49:36.202Z,17.38
2023-03-02T13:52:29.884Z,13.50
2023-03-02T13:54:56.749Z,19.00
2023-03-02T13:57:31.951Z,15.63
2023-03-02T14:00:00.297Z,18.67
2023-03-02T14:02:29.233Z,7.70
2023-03-02T14:04:57.580Z,12.68
2023-03-02T14:07:24.429Z,18.65
2023-03-02T14:09:50.920Z,13.38
2023-03-02T14:12:31.345Z,19.33
2023-03-02T14:15:01.103Z,15.15
2023-03-02T14:17:27.775Z,15.20
2023-03-02T14:19:55.850Z,22.73
2023-03-02T14:22:26.054Z,17.38
2023-03-02T14:24:53.464Z,18.60
2023-03-02T14:27:20.563Z,14.88
2023-03-02T14:29:47.396Z,15.68
2023-03-02T14:32:16.131Z,17.33
2023-03-02T14:34:42.682Z,17.88
2023-03-02T14:37:14.124Z,16.55
2023-03-02T14:39:44.338Z,16.08
2023-03-02T14:42:18.746Z,9.65
2023-03-02T14:44:48.100Z,19.65
2023-03-02T14:47:16.565Z,16.75
2023-03-02T14:49:43.436Z,15.90
2023-03-02T14:52:31.780Z,15.80
2023-03-02T14:55:06.083Z,19.75
2023-03-02T14:57:36.772Z,16.50
2023-03-02T15:00:04.248Z,18.88
2023-03-02T15:02:30.849Z,18.48
2023-03-02T15:04:57.819Z,18.67
2023-03-02T15:07:28.322Z,14.55
2023-03-02T15:09:58.748Z,19.58
2023-03-02T15:12:25.635Z,20.52
2023-03-02T15:14:52.564Z,20.33
2023-03-02T15:17:19.288Z,17.80
2023-03-02T15:19:47.001Z,16.60
2023-03-02T15:22:14.295Z,14.27
2023-03-02T15:24:41.183Z,22.08
2023-03-02T15:27:09.212Z,23.30
2023-03-02T15:29:36.462Z,28.35
2023-03-02T15:32:03.878Z,17.55
2023-03-02T15:34:31.184Z,17.98
2023-03-02T15:36:58.266Z,19.05
2023-03-02T15:39:25.582Z,20.33
2023-03-02T15:41:54.857Z,21.55
2023-03-02T15:44:24.444Z,18.60
2023-03-02T15:46:54.693Z,18.25
2023-03-02T15:49:24.841Z,24.27
2023-03-02T15:51:53.208Z,25.55
2023-03-02T15:54:24.177Z,16.55
2023-03-02T15:56:54.983Z,20.25
2023-03-02T15:59:25.877Z,17.50
2023-03-02T16:01:53.726Z,19.23
2023-03-02T16:04:20.555Z,23.85
2023-03-02T16:06:47.623Z,18.42
2023-03-02T16:09:14.908Z,20.17
2023-03-02T16:11:42.023Z,24.98
2023-03-02T16:14:10.246Z,20.48
2023-03-02T16:16:37.450Z,26.08
2023-03-02T16:19:04.653Z,24.20
2023-03-02T16:21:32.428Z,24.10
2023-03-02T16:24:04.131Z,23.50
2023-03-02T16:26:33.743Z,19.67
2023-03-02T16:29:01.405Z,18.65
2023-03-02T16:31:32.578Z,23.83
2023-03-02T16:34:04.117Z,24.50
2023-03-02T16:36:31.328Z,27.67
2023-03-02T16:38:58.456Z,25.10
2023-03-02T16:41:26.275Z,20.50
2023-03-02T16:43:55.908Z,25.70
2023-03-02T16:46:24.078Z,23.65
2023-03-02T16:48:51.501Z,31.08
2023-03-02T16:51:19.171Z,18.17
2023-03-02T16:53:46.176Z,25.92
2023-03-02T16:56:13.712Z,29.05
2023-03-02T16:58:41.443Z,26.48
2023-03-02T17:01:10.067Z,24.52
2023-03-02T17:03:36.795Z,26.13
2023-03-02T17:06:05.984Z,20.42
2023-03-02T17:08:32.373Z,35.15
2023-03-02T17:10:58.822Z,32.25
2023-03-02T17:13:25.286Z,24.20
2023-03-02T17:15:51.825Z,31.70
2023-03-02T17:18:18.556Z,29.70
2023-03-02T17:20:44.993Z,35.03
2023-03-02T17:23:12.658Z,30.85
2023-03-02T17:25:40.616Z,28.60
2023-03-02T17:28:07.181Z,35.20
2023-03-02T17:30:33.782Z,34.97
2023-03-02T17:33:00.780Z,46.28
2023-03-02T17:35:27.219Z,68.50
2023-03-02T17:37:53.658Z,43.13
2023-03-02T17:40:20.821Z,38.60
2023-03-02T17:42:48.308Z,36.38
2023-03-02T17:45:21.080Z,28.60
2023-03-02T17:47:49.888Z,24.55
2023-03-02T17:50:16.604Z,34.15
2023-03-02T17:52:43.557Z,30.17
2023-03-02T17:55:11.240Z,27.35
2023-03-02T17:57:37.800Z,32.28
2023-03-02T18:00:08.896Z,22.85
2023-03-02T18:02:35.939Z,28.05
2023-03-02T18:05:02.790Z,36.38
2023-03-02T18:07:29.260Z,37.63
2023-03-02T18:09:56.165Z,34.00
2023-03-02T18:12:22.700Z,30.67
2023-03-02T18:14:49.098Z,37.78
2023-03-02T18:17:15.852Z,29.83
2023-03-02T18:19:42.260Z,37.03
2023-03-02T18:22:08.664Z,34.92
2023-03-02T18:24:35.465Z,25.25
2023-03-02T18:27:02.266Z,18.38
2023-03-02T18:29:28.649Z,32.92
2023-03-02T18:31:55.306Z,32.53
2023-03-02T18:34:21.741Z,22.23
2023-03-02T18:36:48.291Z,27.80
2023-03-02T18:39:15.014Z,35.60
2023-03-02T18:41:41.938Z,35.05
2023-03-02T18:44:09.105Z,33.83
2023-03-02T18:46:35.954Z,29.33
2023-03-02T18:49:04.309Z,18.55
2023-03-02T18:51:31.257Z,34.75
2023-03-02T18:53:57.712Z,35.50
2023-03-02T18:56:25.388Z,34.83
2023-03-02T18:58:52.544Z,29.80
2023-03-02T19:01:19.514Z,33.75
2023-03-02T19:03:46.426Z,18.33
2023-03-02T19:06:14.074Z,19.73
2023-03-02T19:08:40.681Z,22.42
2023-03-02T19:11:07.747Z,21.92
2023-03-02T19:13:34.471Z,31.63
2023-03-02T19:16:01.907Z,25.55
2023-03-02T19:18:28.957Z,32.08
2023-03-02T19:20:56.035Z,32.00
2023-03-02T19:23:22.824Z,31.73
2023-03-02T19:25:49.644Z,26.50
2023-03-02T19:28:16.729Z,18.40
2023-03-02T19:30:43.184Z,29.10
2023-03-02T19:33:10.217Z,30.70
2023-03-02T19:35:37.777Z,29.27
2023-03-02T19:38:05.219Z,25.45
2023-03-02T19:40:32.447Z,31.80
2023-03-02T19:42:58.873Z,29.40
2023-03-02T19:45:29.975Z,34.17
2023-03-02T19:47:58.090Z,36.58
2023-03-02T19:50:26.365Z,29.60
2023-03-02T19:52:54.670Z,32.90
2023-03-02T19:55:22.550Z,35.03
2023-03-02T19:57:51.454Z,37.75
2023-03-02T20:00:19.321Z,36.67
2023-03-02T20:02:47.676Z,36.13
2023-03-02T20:05:15.044Z,36.47
2023-03-02T20:07:42.746Z,33.72
2023-03-02T20:10:11.585Z,37.28
2023-03-02T20:12:38.092Z,36.50
2023-03-02T20:15:06.368Z,32.67
2023-03-02T20:17:34.102Z,30.58
2023-03-02T20:20:01.273Z,32.97
2023-03-02T20:22:28.433Z,43.28
2023-03-02T20:24:54.851Z,32.90
2023-03-02T20:27:21.451Z,35.05
2023-03-02T20:29:48.782Z,34.35
2023-03-02T20:32:15.825Z,42.58
2023-03-02T20:34:43.489Z,42.55
2023-03-02T20:37:13.423Z,34.85
2023-03-02T20:39:41.969Z,39.03
2023-03-02T20:42:11.261Z,24.55
2023-03-02T20:44:38.132Z,34.60
2023-03-02T20:47:08.726Z,37.75
2023-03-02T20:49:36.509Z,31.85
2023-03-02T20:52:04.820Z,36.63
2023-03-02T20:54:36.356Z,37.28
2023-03-02T20:57:05.670Z,42.58
2023-03-02T20:59:33.285Z,31.27
2023-03-02T21:02:00.123Z,30.83
2023-03-02T21:04:27.217Z,31.67
2023-03-02T21:06:53.750Z,31.65
2023-03-02T21:09:20.716Z,35.70
2023-03-02T21:11:48.292Z,28.70
2023-03-02T21:14:15.908Z,36.40
2023-03-02T21:16:43.880Z,31.15
2023-03-02T21:19:14.833Z,31.58
2023-03-02T21:21:42.913Z,28.42
2023-03-02T21:24:16.810Z,36.17
2023-03-02T21:26:45.864Z,33.60
2023-03-02T21:29:13.737Z,34.03
2023-03-02T21:31:42.155Z,26.52
2023-03-02T21:34:09.642Z,36.13
2023-03-02T21:36:36.361Z,29.45
2023-03-02T21:39:04.842Z,38.03
2023-03-02T21:41:31.706Z,39.85
2023-03-02T21:43:58.141Z,33.72
2023-03-02T21:46:24.585Z,41.50
2023-03-02T21:48:52.174Z,39.35
2023-03-02T21:51:18.976Z,36.35
2023-03-02T21:53:46.109Z,32.63
2023-03-02T21:56:22.058Z,32.50
2023-03-02T21:58:51.042Z,35.65
2023-03-02T22:01:17.554Z,33.95
2023-03-02T22:03:44.868Z,38.60
2023-03-02T22:06:23.389Z,42.50
2023-03-02T22:08:50.214Z,36.85
2023-03-02T22:11:23.333Z,31.02
2023-03-02T22:13:50.976Z,41.28
2023-03-02T22:16:27.342Z,38.53
2023-03-02T22:18:59.581Z,47.38
2023-03-02T22:21:43.778Z,37.55
2023-03-02T22:24:11.161Z,41.03
2023-03-02T22:26:43.422Z,45.28
2023-03-02T22:29:17.954Z,42.75
2023-03-02T22:31:50.328Z,48.90
2023-03-02T22:34:22.190Z,41.75
2023-03-02T22:36:48.687Z,43.50
2023-03-02T22:39:18.422Z,40.92
2023-03-02T22:41:44.860Z,42.55
2023-03-02T22:44:13.546Z,47.03
2023-03-02T22:46:41.729Z,50.83
2023-03-02T22:49:17.583Z,45.70
2023-03-02T22:51:45.251Z,46.38
2023-03-02T22:54:21.800Z,45.72
2023-03-02T22:56:51.051Z,41.80
2023-03-02T22:59:38.152Z,46.30
2023-03-02T23:02:14.865Z,40.17
2023-03-02T23:04:41.818Z,40.65
2023-03-02T23:07:20.105Z,41.53
2023-03-02T23:09:47.860Z,44.13
2023-03-02T23:12:26.827Z,48.85
2023-03-02T23:14:56.080Z,46.20
2023-03-02T23:17:34.233Z,37.28
2023-03-02T23:20:01.565Z,47.72
2023-03-02T23:22:29.835Z,42.05
2023-03-02T23:24:56.847Z,41.65
2023-03-02T23:27:24.712Z,42.17
2023-03-02T23:29:54.451Z,39.30
2023-03-02T23:32:21.119Z,44.33
2023-03-02T23:34:48.210Z,38.80
2023-03-02T23:37:14.645Z,46.03
2023-03-02T23:39:41.529Z,46.47
2023-03-02T23:42:08.406Z,42.75
2023-03-02T23:44:34.826Z,40.03
2023-03-02T23:47:01.650Z,46.55
2023-03-02T23:49:28.057Z,34.78
2023-03-02T23:51:54.532Z,40.05
2023-03-02T23:54:21.203Z,39.22
2023-03-02T23:56:47.603Z,36.05
2023-03-02T23:59:14.103Z,36.90
